Time;durP1;ratioP1;P1;durP2;ratioP2;P2;SDS_P1;SDS_P2;PMS_P1;PMS_P2;Temp;Humidity;BMP_temperature;BMP_pressure;BME280_temperature;BME280_humidity;BME280_pressure;Samples;Min_cycle;Max_cycle;Signal;HPM_P1;HPM_P2
2024/01/23 00:00:35;;;;;;;20.40;3.22;;;;;;;;;;5072212;28;20054;-72
2024/01/23 00:03:02;;;;;;;22.98;3.03;;;;;;;;;;5075614;28;20125;-71
2024/01/23 00:05:28;;;;;;;17.77;2.67;;;;;;;;;;5086380;28;20143;-74
2024/01/23 00:07:55;;;;;;;21.08;3.10;;;;;;;;;;5082776;28;20609;-69
2024/01/23 00:10:22;;;;;;;21.60;3.08;;;;;;;;;;5078338;28;20093;-71
2024/01/23 00:12:49;;;;;;;15.88;2.72;;;;;;;;;;5082906;28;20052;-70
2024/01/23 00:15:16;;;;;;;20.85;3.22;;;;;;;;;;5083793;28;20071;-70
2024/01/23 00:17:42;;;;;;;19.80;3.22;;;;;;;;;;5074364;28;20072;-70
2024/01/23 00:20:09;;;;;;;17.20;2.80;;;;;;;;;;5085681;28;20139;-71
2024/01/23 00:22:38;;;;;;;23.50;3.75;;;;;;;;;;5065837;28;20059;-70
2024/01/23 00:25:04;;;;;;;21.13;2.80;;;;;;;;;;5088026;28;20051;-73
2024/01/23 00:27:31;;;;;;;15.00;2.95;;;;;;;;;;5087016;28;20154;-70
2024/01/23 00:29:57;;;;;;;25.55;3.53;;;;;;;;;;5094748;28;20051;-73
2024/01/23 00:32:28;;;;;;;21.80;2.60;;;;;;;;;;5087604;28;20379;-68
2024/01/23 00:34:54;;;;;;;21.65;2.67;;;;;;;;;;5090540;28;20052;-71
2024/01/23 00:37:21;;;;;;;19.15;3.17;;;;;;;;;;5083985;28;20044;-70
2024/01/23 00:39:48;;;;;;;13.57;2.90;;;;;;;;;;5081854;28;20722;-71
2024/01/23 00:42:14;;;;;;;18.55;3.35;;;;;;;;;;5086681;28;20055;-71
2024/01/23 00:44:41;;;;;;;19.08;3.75;;;;;;;;;;5080403;28;20699;-73
2024/01/23 00:47:07;;;;;;;29.17;4.13;;;;;;;;;;5087350;28;20048;-72
2024/01/23 00:49:33;;;;;;;22.83;3.20;;;;;;;;;;5083195;28;20475;-74
2024/01/23 00:52:00;;;;;;;18.65;2.92;;;;;;;;;;5076879;28;20565;-70
2024/01/23 00:54:26;;;;;;;27.20;3.22;;;;;;;;;;5084266;28;20083;-71
2024/01/23 00:56:52;;;;;;;21.70;3.00;;;;;;;;;;5080106;28;20063;-71
2024/01/23 00:59:19;;;;;;;22.23;3.55;;;;;;;;;;5093111;28;20040;-71
2024/01/23 01:01:45;;;;;;;23.65;3.30;;;;;;;;;;5062438;28;20044;-71
2024/01/23 01:04:12;;;;;;;23.10;2.88;;;;;;;;;;5081394;28;20131;-72
2024/01/23 01:06:38;;;;;;;22.73;2.97;;;;;;;;;;5063290;28;20789;-72
2024/01/23 01:09:05;;;;;;;20.05;3.67;;;;;;;;;;5079363;28;20083;-71
2024/01/23 01:11:32;;;;;;;17.27;3.00;;;;;;;;;;5074087;28;20047;-72
2024/01/23 01:13:58;;;;;;;18.92;2.70;;;;;;;;;;5049773;28;20179;-72
2024/01/23 01:16:25;;;;;;;21.80;3.30;;;;;;;;;;5070315;28;21485;-72
2024/01/23 01:18:53;;;;;;;14.43;2.80;;;;;;;;;;5068022;28;20102;-73
2024/01/23 01:21:19;;;;;;;26.70;3.55;;;;;;;;;;5065432;28;20052;-72
2024/01/23 01:23:46;;;;;;;25.63;3.47;;;;;;;;;;5084547;28;20052;-73
2024/01/23 01:26:12;;;;;;;20.38;3.17;;;;;;;;;;5080126;28;20113;-72
2024/01/23 01:28:39;;;;;;;41.90;3.85;;;;;;;;;;5085217;28;20066;-71
2024/01/23 01:31:05;;;;;;;20.63;2.75;;;;;;;;;;5083426;28;20052;-72
2024/01/23 01:33:31;;;;;;;20.65;3.15;;;;;;;;;;5071616;28;20101;-72
2024/01/23 01:35:58;;;;;;;20.23;3.50;;;;;;;;;;5081068;28;20508;-73
2024/01/23 01:38:24;;;;;;;25.33;3.17;;;;;;;;;;5071343;28;20048;-73
2024/01/23 01:40:51;;;;;;;16.95;3.00;;;;;;;;;;5097635;28;20047;-71
2024/01/23 01:43:27;;;;;;;14.25;2.63;;;;;;;;;;5073269;28;20084;-72
2024/01/23 01:46:12;;;;;;;16.35;2.50;;;;;;;;;;5084549;28;20056;-71
2024/01/23 01:48:40;;;;;;;22.63;3.60;;;;;;;;;;5076876;28;21020;-72
2024/01/23 01:51:06;;;;;;;22.73;3.13;;;;;;;;;;5081321;28;20047;-73
2024/01/23 01:53:33;;;;;;;17.80;3.05;;;;;;;;;;5067434;28;20052;-73
2024/01/23 01:56:01;;;;;;;26.05;4.30;;;;;;;;;;5077850;28;20101;-69
2024/01/23 01:58:28;;;;;;;23.23;3.23;;;;;;;;;;5086949;28;20056;-73
2024/01/23 02:00:54;;;;;;;20.70;2.83;;;;;;;;;;5058713;28;20056;-74
2024/01/23 02:03:24;;;;;;;21.15;3.53;;;;;;;;;;5089585;28;20138;-71
2024/01/23 02:05:51;;;;;;;22.58;3.10;;;;;;;;;;5083610;28;20072;-73
2024/01/23 02:08:17;;;;;;;23.25;3.28;;;;;;;;;;5078215;28;20548;-73
2024/01/23 02:10:44;;;;;;;22.80;3.58;;;;;;;;;;5092068;28;20120;-76
2024/01/23 02:13:10;;;;;;;16.52;2.58;;;;;;;;;;5082223;28;20683;-74
2024/01/23 02:15:37;;;;;;;19.25;2.42;;;;;;;;;;5095390;28;20044;-74
2024/01/23 02:18:03;;;;;;;21.65;2.78;;;;;;;;;;5059736;28;20631;-74
2024/01/23 02:20:30;;;;;;;21.63;3.88;;;;;;;;;;5095641;28;20462;-70
2024/01/23 02:22:57;;;;;;;20.65;2.15;;;;;;;;;;5084374;28;20077;-75
2024/01/23 02:25:23;;;;;;;20.13;2.47;;;;;;;;;;5079725;28;20138;-73
2024/01/23 02:27:49;;;;;;;25.48;4.07;;;;;;;;;;5098939;28;20051;-73
2024/01/23 02:30:16;;;;;;;18.45;2.92;;;;;;;;;;5077451;28;20766;-72
2024/01/23 02:32:43;;;;;;;18.65;3.28;;;;;;;;;;5060142;28;20055;-73
2024/01/23 02:35:10;;;;;;;23.23;3.78;;;;;;;;;;5081869;28;20749;-71
2024/01/23 02:37:36;;;;;;;20.23;4.03;;;;;;;;;;5088018;28;20055;-71
2024/01/23 02:40:03;;;;;;;19.15;3.17;;;;;;;;;;5083902;28;20040;-73
2024/01/23 02:42:30;;;;;;;23.15;3.63;;;;;;;;;;5071169;28;20434;-69
2024/01/23 02:44:56;;;;;;;19.42;3.15;;;;;;;;;;5080247;28;20052;-69
2024/01/23 02:47:23;;;;;;;18.55;2.75;;;;;;;;;;5073453;28;20680;-69
2024/01/23 02:49:50;;;;;;;17.00;2.40;;;;;;;;;;5081693;28;20044;-69
2024/01/23 02:52:16;;;;;;;21.92;3.65;;;;;;;;;;5087113;28;20052;-69
2024/01/23 02:54:43;;;;;;;20.80;4.53;;;;;;;;;;5059703;28;20044;-69
2024/01/23 02:57:12;;;;;;;22.05;3.45;;;;;;;;;;5082900;28;20048;-71
2024/01/23 02:59:38;;;;;;;;;;;;;;;;;;5067539;28;20553;-70
2024/01/23 03:02:05;;;;;;;18.92;2.95;;;;;;;;;;5083712;28;19928;-70
2024/01/23 03:04:31;;;;;;;20.75;3.38;;;;;;;;;;5070869;28;20076;-70
2024/01/23 03:06:58;;;;;;;15.88;3.60;;;;;;;;;;5074129;28;20059;-71
2024/01/23 03:09:24;;;;;;;18.13;2.85;;;;;;;;;;5083943;28;20121;-72
2024/01/23 03:11:51;;;;;;;12.02;3.25;;;;;;;;;;5074372;28;20052;-72
2024/01/23 03:14:18;;;;;;;21.83;3.30;;;;;;;;;;5066318;28;20106;-71
2024/01/23 03:16:44;;;;;;;17.05;2.70;;;;;;;;;;5087749;28;20059;-73
2024/01/23 03:19:11;;;;;;;21.70;2.97;;;;;;;;;;5095371;28;20051;-71
2024/01/23 03:21:37;;;;;;;20.50;2.95;;;;;;;;;;5087675;28;20040;-71
2024/01/23 03:24:04;;;;;;;17.45;3.40;;;;;;;;;;5082054;28;20050;-71
2024/01/23 03:26:31;;;;;;;20.42;2.80;;;;;;;;;;5065319;28;20202;-70
2024/01/23 03:28:57;;;;;;;18.13;3.03;;;;;;;;;;5079297;28;20052;-70
2024/01/23 03:31:23;;;;;;;22.27;3.00;;;;;;;;;;5087775;28;20844;-71
2024/01/23 03:33:51;;;;;;;18.80;3.13;;;;;;;;;;5086312;28;20093;-71
2024/01/23 03:36:18;;;;;;;18.83;3.45;;;;;;;;;;5083797;28;20044;-71
2024/01/23 03:38:44;;;;;;;23.45;3.25;;;;;;;;;;5078291;28;20128;-70
2024/01/23 03:41:10;;;;;;;25.48;2.78;;;;;;;;;;5079077;28;20742;-72
2024/01/23 03:43:37;;;;;;;15.48;2.92;;;;;;;;;;5065843;28;20062;-73
2024/01/23 03:46:03;;;;;;;19.15;2.70;;;;;;;;;;5093756;28;20478;-71
2024/01/23 03:48:30;;;;;;;24.38;2.97;;;;;;;;;;5087106;28;20054;-69
2024/01/23 03:50:56;;;;;;;19.95;3.20;;;;;;;;;;5087280;28;20641;-70
2024/01/23 03:53:23;;;;;;;18.10;3.35;;;;;;;;;;5081911;28;20530;-69
2024/01/23 03:55:49;;;;;;;25.75;3.53;;;;;;;;;;5082675;28;20055;-70
2024/01/23 03:58:15;;;;;;;20.90;3.22;;;;;;;;;;5076476;28;20074;-69
2024/01/23 04:00:42;;;;;;;19.42;3.03;;;;;;;;;;5086033;28;20476;-68
2024/01/23 04:03:10;;;;;;;19.45;2.72;;;;;;;;;;5089173;28;20505;-70
2024/01/23 04:05:37;;;;;;;23.33;2.50;;;;;;;;;;5078425;28;20139;-71
2024/01/23 04:08:03;;;;;;;18.25;3.80;;;;;;;;;;5078140;28;20458;-70
2024/01/23 04:10:30;;;;;;;16.48;3.38;;;;;;;;;;5080332;28;20048;-69
2024/01/23 04:12:56;;;;;;;22.52;3.47;;;;;;;;;;5092375;28;20583;-69
2024/01/23 04:15:23;;;;;;;16.05;3.53;;;;;;;;;;5081754;28;20044;-68
2024/01/23 04:17:50;;;;;;;14.95;2.53;;;;;;;;;;5084159;28;20054;-68
2024/01/23 04:20:17;;;;;;;20.33;2.65;;;;;;;;;;5086348;28;20044;-68
2024/01/23 04:22:43;;;;;;;19.17;3.00;;;;;;;;;;5078765;28;20048;-68
2024/01/23 04:25:11;;;;;;;27.33;3.60;;;;;;;;;;5087083;28;20079;-66
2024/01/23 04:27:38;;;;;;;22.13;3.30;;;;;;;;;;5080018;28;20052;-68
2024/01/23 04:30:04;;;;;;;19.40;2.97;;;;;;;;;;5084723;28;20134;-70
2024/01/23 04:32:31;;;;;;;21.30;2.80;;;;;;;;;;5062483;28;20093;-68
2024/01/23 04:34:57;;;;;;;23.77;4.97;;;;;;;;;;5091026;28;20434;-68
2024/01/23 04:37:24;;;;;;;20.88;3.28;;;;;;;;;;5078598;28;20044;-69
2024/01/23 04:39:50;;;;;;;21.63;2.90;;;;;;;;;;5076416;28;20159;-69
2024/01/23 04:42:17;;;;;;;20.45;3.08;;;;;;;;;;5081272;28;20071;-68
2024/01/23 04:44:43;;;;;;;18.30;2.78;;;;;;;;;;5081898;28;20040;-67
2024/01/23 04:47:10;;;;;;;26.23;3.38;;;;;;;;;;5095135;28;20097;-67
2024/01/23 04:49:36;;;;;;;16.63;3.15;;;;;;;;;;5080093;28;20597;-69
2024/01/23 04:52:03;;;;;;;18.23;3.00;;;;;;;;;;5076835;28;20051;-68
2024/01/23 04:54:29;;;;;;;12.05;2.53;;;;;;;;;;5092645;28;20110;-67
2024/01/23 04:56:55;;;;;;;22.83;3.22;;;;;;;;;;5075017;28;20147;-69
2024/01/23 04:59:22;;;;;;;20.40;3.13;;;;;;;;;;5090028;28;20044;-68
2024/01/23 05:01:48;;;;;;;18.98;2.95;;;;;;;;;;5093999;28;20079;-68
2024/01/23 05:04:15;;;;;;;16.85;3.28;;;;;;;;;;5074800;28;20550;-68
2024/01/23 05:06:41;;;;;;;21.15;2.90;;;;;;;;;;5085857;28;20048;-66
2024/01/23 05:09:08;;;;;;;20.15;3.28;;;;;;;;;;5069082;28;20498;-72
2024/01/23 05:11:35;;;;;;;22.70;3.47;;;;;;;;;;5091875;28;20131;-67
2024/01/23 05:14:02;;;;;;;20.10;3.22;;;;;;;;;;5068628;28;21159;-67
2024/01/23 05:16:28;;;;;;;23.02;3.67;;;;;;;;;;5083958;28;20747;-68
2024/01/23 05:18:54;;;;;;;21.95;3.40;;;;;;;;;;5098640;28;20559;-69
2024/01/23 05:21:21;;;;;;;21.98;3.50;;;;;;;;;;5081695;28;20492;-67
2024/01/23 05:23:48;;;;;;;23.38;2.97;;;;;;;;;;5086433;28;20049;-68
2024/01/23 05:26:14;;;;;;;19.25;3.35;;;;;;;;;;5082016;28;20085;-69
2024/01/23 05:28:40;;;;;;;25.00;3.47;;;;;;;;;;5086667;28;20161;-68
2024/01/23 05:31:07;;;;;;;37.47;2.90;;;;;;;;;;5075230;28;20048;-68
2024/01/23 05:33:34;;;;;;;16.15;2.78;;;;;;;;;;5085724;28;20048;-67
2024/01/23 05:36:00;;;;;;;23.70;3.03;;;;;;;;;;5086577;28;20048;-67
2024/01/23 05:38:27;;;;;;;21.33;3.58;;;;;;;;;;5080834;28;20056;-68
2024/01/23 05:40:53;;;;;;;24.08;3.92;;;;;;;;;;5067982;28;20048;-68
2024/01/23 05:43:20;;;;;;;20.45;3.47;;;;;;;;;;5076470;28;20194;-67
2024/01/23 05:45:46;;;;;;;14.48;2.78;;;;;;;;;;5083667;28;20125;-68
2024/01/23 05:48:12;;;;;;;23.10;3.08;;;;;;;;;;5085616;28;20420;-67
2024/01/23 05:50:39;;;;;;;21.40;3.72;;;;;;;;;;5081484;28;20060;-68
2024/01/23 05:53:05;;;;;;;22.85;2.53;;;;;;;;;;5092380;28;20170;-68
2024/01/23 05:55:32;;;;;;;21.45;3.22;;;;;;;;;;5078984;28;20464;-66
2024/01/23 05:57:58;;;;;;;23.58;3.70;;;;;;;;;;5082727;28;20043;-68
2024/01/23 06:00:25;;;;;;;19.95;2.78;;;;;;;;;;5079619;28;20040;-68
2024/01/23 06:02:51;;;;;;;18.08;3.15;;;;;;;;;;5074224;28;20395;-69
2024/01/23 06:05:19;;;;;;;22.50;4.05;;;;;;;;;;5069345;28;20076;-68
2024/01/23 06:07:49;;;;;;;18.42;3.63;;;;;;;;;;5078991;28;20075;-67
2024/01/23 06:10:16;;;;;;;30.50;2.75;;;;;;;;;;5090918;28;20089;-67
2024/01/23 06:12:43;;;;;;;26.42;3.35;;;;;;;;;;5079198;28;20143;-68
2024/01/23 06:15:10;;;;;;;22.10;2.88;;;;;;;;;;5096566;28;20050;-67
2024/01/23 06:17:37;;;;;;;25.77;3.08;;;;;;;;;;5086298;28;20044;-67
2024/01/23 06:20:04;;;;;;;21.90;3.25;;;;;;;;;;5092476;28;20072;-68
2024/01/23 06:22:31;;;;;;;16.80;3.03;;;;;;;;;;5086080;28;20635;-66
2024/01/23 06:25:04;;;;;;;15.07;2.38;;;;;;;;;;5082688;28;20075;-67
2024/01/23 06:27:31;;;;;;;23.30;3.10;;;;;;;;;;5097145;28;20462;-65
2024/01/23 06:29:57;;;;;;;21.35;3.17;;;;;;;;;;5083037;28;20052;-68
2024/01/23 06:32:24;;;;;;;19.88;3.15;;;;;;;;;;5079659;28;20166;-66
2024/01/23 06:34:51;;;;;;;18.45;2.88;;;;;;;;;;5078812;28;20051;-68
2024/01/23 06:37:20;;;;;;;24.63;4.10;;;;;;;;;;5075668;28;20053;-70
2024/01/23 06:39:47;;;;;;;21.83;3.00;;;;;;;;;;5081397;28;20459;-67
2024/01/23 06:42:13;;;;;;;20.48;3.13;;;;;;;;;;5079189;28;20050;-70
2024/01/23 06:44:39;;;;;;;18.70;2.60;;;;;;;;;;5085739;28;20123;-68
2024/01/23 06:47:06;;;;;;;27.75;2.97;;;;;;;;;;5077199;28;20044;-67
2024/01/23 06:49:32;;;;;;;21.77;3.30;;;;;;;;;;5084548;28;20139;-67
2024/01/23 06:51:59;;;;;;;23.63;4.28;;;;;;;;;;5080874;28;20044;-66
2024/01/23 06:54:25;;;;;;;23.15;3.53;;;;;;;;;;5079432;28;20044;-67
2024/01/23 06:56:52;;;;;;;21.45;3.50;;;;;;;;;;5085103;28;20079;-67
2024/01/23 06:59:18;;;;;;;25.23;3.13;;;;;;;;;;5082476;28;20097;-67
2024/01/23 07:01:44;;;;;;;19.38;2.83;;;;;;;;;;5094200;28;20051;-66
2024/01/23 07:04:11;;;;;;;17.75;2.88;;;;;;;;;;5062846;28;20071;-67
2024/01/23 07:06:37;;;;;;;20.92;2.70;;;;;;;;;;5076739;28;20180;-67
2024/01/23 07:09:07;;;;;;;23.02;3.33;;;;;;;;;;5084490;28;20052;-67
2024/01/23 07:11:33;;;;;;;25.42;3.50;;;;;;;;;;5082201;28;20048;-67
2024/01/23 07:14:00;;;;;;;21.58;2.88;;;;;;;;;;5082896;28;20052;-67
2024/01/23 07:16:26;;;;;;;21.80;3.33;;;;;;;;;;5078756;28;20146;-68
2024/01/23 07:18:52;;;;;;;29.15;3.05;;;;;;;;;;5084186;28;20105;-69
2024/01/23 07:21:19;;;;;;;18.42;3.45;;;;;;;;;;5081128;28;20048;-70
2024/01/23 07:23:45;;;;;;;21.60;3.10;;;;;;;;;;5075763;28;20675;-68
2024/01/23 07:26:12;;;;;;;17.55;2.80;;;;;;;;;;5078791;28;20040;-69
2024/01/23 07:28:39;;;;;;;18.77;3.03;;;;;;;;;;5082513;28;20048;-70
2024/01/23 07:31:25;;;;;;;25.70;3.15;;;;;;;;;;5084646;28;20048;-69
2024/01/23 07:33:52;;;;;;;26.27;3.63;;;;;;;;;;5063195;28;20489;-69
2024/01/23 07:36:18;;;;;;;20.70;3.17;;;;;;;;;;5081060;28;20138;-69
2024/01/23 07:38:45;;;;;;;16.48;2.63;;;;;;;;;;5085333;28;20135;-69
2024/01/23 07:41:11;;;;;;;15.88;2.90;;;;;;;;;;5076852;28;20411;-69
2024/01/23 07:43:38;;;;;;;23.13;2.80;;;;;;;;;;5084168;28;20048;-69
2024/01/23 07:46:05;;;;;;;27.00;3.90;;;;;;;;;;5058660;28;20492;-67
2024/01/23 07:48:31;;;;;;;20.45;3.22;;;;;;;;;;5079948;28;20158;-68
2024/01/23 07:50:57;;;;;;;22.63;3.13;;;;;;;;;;5084748;28;20036;-69
2024/01/23 07:53:24;;;;;;;22.33;3.13;;;;;;;;;;5078851;28;20490;-69
2024/01/23 07:55:52;;;;;;;25.13;3.42;;;;;;;;;;5083617;28;20071;-68
2024/01/23 07:58:18;;;;;;;24.23;2.88;;;;;;;;;;5061638;28;20055;-70
2024/01/23 08:00:44;;;;;;;24.77;3.58;;;;;;;;;;5085265;28;20068;-69
2024/01/23 08:03:11;;;;;;;20.65;3.53;;;;;;;;;;5083903;28;20051;-67
2024/01/23 08:05:38;;;;;;;17.55;2.75;;;;;;;;;;5078103;28;20048;-69
2024/01/23 08:08:04;;;;;;;21.10;2.97;;;;;;;;;;5079429;28;20616;-70
2024/01/23 08:10:31;;;;;;;17.33;3.97;;;;;;;;;;5077415;28;20046;-70
2024/01/23 08:12:57;;;;;;;20.48;2.72;;;;;;;;;;5079367;28;20455;-70
2024/01/23 08:15:24;;;;;;;23.80;3.45;;;;;;;;;;5071027;28;20128;-68
2024/01/23 08:17:50;;;;;;;23.73;3.50;;;;;;;;;;5064069;28;20465;-68
2024/01/23 08:20:18;;;;;;;22.40;3.95;;;;;;;;;;5097806;28;20039;-69
2024/01/23 08:22:44;;;;;;;19.33;3.80;;;;;;;;;;5082026;28;20544;-68
2024/01/23 08:25:11;;;;;;;20.95;2.63;;;;;;;;;;5088026;28;20051;-68
2024/01/23 08:27:37;;;;;;;23.88;3.45;;;;;;;;;;5081822;28;20607;-68
2024/01/23 08:30:04;;;;;;;21.75;2.83;;;;;;;;;;5082365;28;20127;-68
2024/01/23 08:32:31;;;;;;;28.00;3.58;;;;;;;;;;5081229;28;20047;-68
2024/01/23 08:34:57;;;;;;;24.00;3.55;;;;;;;;;;5087054;28;20069;-67
2024/01/23 08:37:25;;;;;;;23.98;3.03;;;;;;;;;;5090861;28;20103;-68
2024/01/23 08:39:53;;;;;;;27.40;3.30;;;;;;;;;;5082272;28;20505;-66
2024/01/23 08:42:20;;;;;;;18.65;3.53;;;;;;;;;;5083385;28;20048;-67
2024/01/23 08:44:49;;;;;;;25.67;3.63;;;;;;;;;;5075969;28;20377;-67
2024/01/23 08:47:16;;;;;;;22.75;3.97;;;;;;;;;;5087986;28;20097;-69
2024/01/23 08:49:42;;;;;;;25.25;3.72;;;;;;;;;;5076319;28;20361;-65
2024/01/23 08:52:09;;;;;;;20.70;3.60;;;;;;;;;;5087687;28;20441;-68
2024/01/23 08:54:36;;;;;;;30.30;4.93;;;;;;;;;;5069001;28;20062;-69
2024/01/23 08:57:03;;;;;;;18.33;3.17;;;;;;;;;;5075404;28;20135;-70
2024/01/23 08:59:30;;;;;;;24.65;3.47;;;;;;;;;;5082279;28;20075;-68
2024/01/23 09:01:56;;;;;;;20.52;4.03;;;;;;;;;;5074914;28;20058;-66
2024/01/23 09:04:22;;;;;;;23.60;3.75;;;;;;;;;;5080425;28;20079;-68
2024/01/23 09:06:49;;;;;;;20.45;3.05;;;;;;;;;;5085089;28;20143;-65
2024/01/23 09:09:16;;;;;;;25.60;3.53;;;;;;;;;;5081596;28;20070;-66
2024/01/23 09:11:42;;;;;;;24.00;4.10;;;;;;;;;;5079545;28;20048;-65
2024/01/23 09:14:08;;;;;;;26.83;3.88;;;;;;;;;;5074314;28;20075;-68
2024/01/23 09:16:35;;;;;;;20.58;3.28;;;;;;;;;;5081117;28;20109;-67
2024/01/23 09:19:01;;;;;;;26.92;4.45;;;;;;;;;;5086359;28;20058;-66
2024/01/23 09:21:28;;;;;;;28.90;4.50;;;;;;;;;;5086372;28;20524;-67
2024/01/23 09:23:55;;;;;;;30.73;4.43;;;;;;;;;;5067238;28;20048;-67
2024/01/23 09:26:21;;;;;;;19.33;3.28;;;;;;;;;;5079903;28;20075;-67
2024/01/23 09:28:47;;;;;;;22.38;3.28;;;;;;;;;;5085867;28;20052;-68
2024/01/23 09:31:14;;;;;;;26.65;3.45;;;;;;;;;;5080507;28;20055;-68
2024/01/23 09:33:40;;;;;;;18.40;3.00;;;;;;;;;;5087583;28;20130;-69
2024/01/23 09:36:09;;;;;;;23.30;3.50;;;;;;;;;;5077615;28;20054;-68
2024/01/23 09:38:35;;;;;;;23.90;3.75;;;;;;;;;;5080962;28;20047;-68
2024/01/23 09:41:07;;;;;;;23.25;3.83;;;;;;;;;;5082271;28;20154;-68
2024/01/23 09:43:34;;;;;;;23.50;3.40;;;;;;;;;;5079415;28;20047;-70
2024/01/23 09:46:02;;;;;;;21.52;3.50;;;;;;;;;;5084868;28;20075;-69
2024/01/23 09:48:30;;;;;;;20.70;3.58;;;;;;;;;;5084971;28;20814;-71
2024/01/23 09:50:57;;;;;;;25.08;3.78;;;;;;;;;;5060099;28;20044;-71
2024/01/23 09:53:25;;;;;;;20.38;3.78;;;;;;;;;;5080796;28;20047;-68
2024/01/23 09:55:51;;;;;;;34.30;4.80;;;;;;;;;;5082858;28;20140;-70
2024/01/23 09:58:18;;;;;;;21.23;3.80;;;;;;;;;;5079823;28;20104;-70
2024/01/23 10:00:44;;;;;;;23.73;3.38;;;;;;;;;;5081688;28;20079;-70
2024/01/23 10:03:11;;;;;;;19.15;3.35;;;;;;;;;;5092873;28;20055;-71
2024/01/23 10:05:38;;;;;;;19.40;2.97;;;;;;;;;;5070856;28;20052;-70
2024/01/23 10:08:06;;;;;;;24.38;4.10;;;;;;;;;;5073538;28;20575;-72
2024/01/23 10:10:35;;;;;;;29.85;5.13;;;;;;;;;;5092361;28;20052;-69
2024/01/23 10:13:02;;;;;;;22.60;4.03;;;;;;;;;;5087495;28;20059;-70
2024/01/23 10:15:29;;;;;;;20.80;3.10;;;;;;;;;;5085585;28;20044;-71
2024/01/23 10:17:56;;;;;;;27.25;3.55;;;;;;;;;;5079872;28;20771;-71
2024/01/23 10:20:23;;;;;;;22.25;3.67;;;;;;;;;;5080472;28;20061;-70
2024/01/23 10:22:49;;;;;;;27.90;3.67;;;;;;;;;;5081770;28;20113;-70
2024/01/23 10:25:20;;;;;;;22.95;3.25;;;;;;;;;;5073306;28;20076;-70
2024/01/23 10:27:53;;;;;;;21.73;4.35;;;;;;;;;;5084971;28;20052;-71
2024/01/23 10:30:20;;;;;;;18.58;3.67;;;;;;;;;;5078774;28;20131;-71
2024/01/23 10:32:47;;;;;;;24.23;4.00;;;;;;;;;;5082788;28;20052;-72
2024/01/23 10:35:14;;;;;;;26.55;3.65;;;;;;;;;;5074019;28;20132;-71
2024/01/23 10:37:41;;;;;;;24.90;3.83;;;;;;;;;;5080980;28;20044;-73
2024/01/23 10:40:10;;;;;;;27.17;4.15;;;;;;;;;;5081571;28;20381;-72
2024/01/23 10:42:36;;;;;;;17.08;3.38;;;;;;;;;;5073716;28;20044;-72
2024/01/23 10:45:04;;;;;;;23.38;3.92;;;;;;;;;;5074007;28;20048;-71
2024/01/23 10:47:31;;;;;;;23.80;3.57;;;;;;;;;;5074632;28;20044;-70
2024/01/23 10:49:57;;;;;;;30.52;5.07;;;;;;;;;;5079629;28;20308;-70
2024/01/23 10:52:25;;;;;;;25.23;3.67;;;;;;;;;;5079178;28;20089;-71
2024/01/23 10:54:52;;;;;;;25.92;4.22;;;;;;;;;;5079865;28;20091;-69
2024/01/23 10:57:23;;;;;;;26.03;4.70;;;;;;;;;;5077037;28;20055;-73
2024/01/23 10:59:50;;;;;;;22.15;4.25;;;;;;;;;;5089983;28;20048;-68
2024/01/23 11:02:29;;;;;;;24.08;4.18;;;;;;;;;;5059047;28;20040;-73
2024/01/23 11:04:56;;;;;;;23.98;3.55;;;;;;;;;;5049974;28;20495;-69
2024/01/23 11:07:34;;;;;;;19.23;4.00;;;;;;;;;;5083470;28;20052;-72
2024/01/23 11:10:15;;;;;;;19.42;3.50;;;;;;;;;;5079066;28;20153;-68
2024/01/23 11:12:48;;;;;;;24.55;4.63;;;;;;;;;;5084664;28;20499;-72
2024/01/23 11:15:16;;;;;;;23.27;3.53;;;;;;;;;;5072965;28;20059;-71
2024/01/23 11:17:43;;;;;;;22.25;3.90;;;;;;;;;;5082554;28;20536;-73
2024/01/23 11:20:13;;;;;;;28.52;4.22;;;;;;;;;;5072915;28;20105;-70
2024/01/23 11:22:40;;;;;;;22.63;3.60;;;;;;;;;;5068560;28;20048;-71
2024/01/23 11:25:10;;;;;;;20.33;3.70;;;;;;;;;;5079175;28;20052;-70
2024/01/23 11:27:37;;;;;;;23.20;3.47;;;;;;;;;;5079607;28;20327;-70
2024/01/23 11:30:07;;;;;;;23.93;3.60;;;;;;;;;;5082684;28;20051;-69
2024/01/23 11:32:34;;;;;;;24.33;3.85;;;;;;;;;;5064106;28;20056;-69
2024/01/23 11:35:02;;;;;;;22.48;4.15;;;;;;;;;;5088258;28;20514;-68
2024/01/23 11:37:32;;;;;;;26.75;4.65;;;;;;;;;;5083798;28;20052;-67
2024/01/23 11:39:59;;;;;;;25.80;4.30;;;;;;;;;;5063867;28;20036;-70
2024/01/23 11:42:40;;;;;;;22.92;4.10;;;;;;;;;;5096143;28;20040;-68
2024/01/23 11:45:25;;;;;;;20.73;4.65;;;;;;;;;;5079171;28;20048;-67
2024/01/23 11:47:55;;;;;;;26.83;4.32;;;;;;;;;;5085955;28;20055;-67
2024/01/23 11:50:21;;;;;;;25.23;3.83;;;;;;;;;;5082362;28;20048;-69
2024/01/23 11:52:49;;;;;;;21.90;3.55;;;;;;;;;;5088656;28;20132;-72
2024/01/23 11:55:15;;;;;;;22.02;3.65;;;;;;;;;;5088973;28;20083;-67
2024/01/23 11:57:42;;;;;;;25.95;3.70;;;;;;;;;;5080294;28;20488;-69
2024/01/23 12:00:08;;;;;;;19.40;3.88;;;;;;;;;;5087582;28;20437;-68
2024/01/23 12:02:35;;;;;;;18.98;3.50;;;;;;;;;;5091596;28;20040;-68
2024/01/23 12:05:01;;;;;;;26.88;3.70;;;;;;;;;;5074319;28;20056;-67
2024/01/23 12:07:28;;;;;;;19.83;4.07;;;;;;;;;;5076867;28;20047;-68
2024/01/23 12:09:55;;;;;;;24.17;4.32;;;;;;;;;;5062401;28;20044;-71
2024/01/23 12:12:21;;;;;;;17.30;3.33;;;;;;;;;;5083597;28;20075;-68
2024/01/23 12:14:47;;;;;;;31.08;4.25;;;;;;;;;;5078471;28;20090;-69
2024/01/23 12:17:14;;;;;;;24.08;4.30;;;;;;;;;;5074114;28;20072;-68
2024/01/23 12:19:47;;;;;;;20.60;3.72;;;;;;;;;;5088390;28;20510;-69
2024/01/23 12:22:15;;;;;;;16.70;3.00;;;;;;;;;;5086818;28;20052;-69
2024/01/23 12:24:42;;;;;;;21.50;3.50;;;;;;;;;;5086006;28;20131;-67
2024/01/23 12:27:08;;;;;;;19.58;3.40;;;;;;;;;;5066568;28;20596;-68
2024/01/23 12:29:39;;;;;;;26.75;4.47;;;;;;;;;;5083681;28;20056;-68
2024/01/23 12:32:08;;;;;;;21.75;3.67;;;;;;;;;;5080760;28;20048;-68
2024/01/23 12:34:35;;;;;;;19.20;3.15;;;;;;;;;;5082953;28;20052;-69
2024/01/23 12:37:01;;;;;;;24.77;3.63;;;;;;;;;;5082678;28;20039;-66
2024/01/23 12:39:28;;;;;;;15.18;3.00;;;;;;;;;;5087192;28;20062;-68
2024/01/23 12:41:55;;;;;;;21.35;3.47;;;;;;;;;;5083524;28;20468;-68
2024/01/23 12:44:21;;;;;;;17.05;3.40;;;;;;;;;;5078459;28;20079;-67
2024/01/23 12:46:48;;;;;;;19.67;3.33;;;;;;;;;;5086646;28;20075;-66
2024/01/23 12:49:14;;;;;;;19.25;3.10;;;;;;;;;;5081088;28;20083;-67
2024/01/23 12:51:46;;;;;;;20.33;3.58;;;;;;;;;;5086411;28;20044;-68
2024/01/23 12:54:12;;;;;;;21.98;3.85;;;;;;;;;;5084725;28;20046;-66
2024/01/23 12:56:39;;;;;;;18.00;3.40;;;;;;;;;;5076058;28;20067;-68
2024/01/23 12:59:06;;;;;;;22.50;4.35;;;;;;;;;;5088854;28;20040;-67
2024/01/23 13:01:35;;;;;;;23.63;3.85;;;;;;;;;;5081119;28;20131;-67
2024/01/23 13:04:02;;;;;;;20.27;3.92;;;;;;;;;;5086881;28;20533;-68
2024/01/23 13:06:29;;;;;;;24.27;4.00;;;;;;;;;;5082538;28;20040;-67
2024/01/23 13:08:56;;;;;;;19.52;3.75;;;;;;;;;;5082790;28;20097;-68
2024/01/23 13:11:23;;;;;;;16.38;3.83;;;;;;;;;;5082661;28;20056;-67
2024/01/23 13:13:49;;;;;;;19.00;3.33;;;;;;;;;;5080447;28;20077;-68
2024/01/23 13:16:16;;;;;;;19.67;3.17;;;;;;;;;;5088551;28;20040;-66
2024/01/23 13:18:42;;;;;;;16.20;3.00;;;;;;;;;;5091628;28;20052;-66
2024/01/23 13:21:09;;;;;;;18.92;3.53;;;;;;;;;;5086112;28;20044;-67
2024/01/23 13:23:35;;;;;;;18.92;3.22;;;;;;;;;;5083094;28;20052;-68
2024/01/23 13:26:03;;;;;;;20.88;3.47;;;;;;;;;;5075325;28;20048;-68
2024/01/23 13:28:30;;;;;;;25.65;3.67;;;;;;;;;;5064083;28;20095;-69
2024/01/23 13:30:56;;;;;;;18.67;2.92;;;;;;;;;;5080590;28;20052;-68
2024/01/23 13:33:23;;;;;;;26.00;3.67;;;;;;;;;;5070771;28;20050;-67
2024/01/23 13:35:50;;;;;;;16.67;3.10;;;;;;;;;;5080325;28;20044;-68
2024/01/23 13:38:17;;;;;;;24.67;3.95;;;;;;;;;;5081369;28;20515;-68
2024/01/23 13:40:43;;;;;;;27.38;3.88;;;;;;;;;;5081128;28;20084;-68
2024/01/23 13:43:10;;;;;;;32.03;4.22;;;;;;;;;;5080461;28;20048;-67
2024/01/23 13:45:36;;;;;;;23.85;3.67;;;;;;;;;;5074607;28;20131;-67
2024/01/23 13:48:04;;;;;;;22.35;3.80;;;;;;;;;;5079770;28;20133;-67
2024/01/23 13:50:31;;;;;;;24.35;3.67;;;;;;;;;;5085439;28;20048;-66
2024/01/23 13:52:58;;;;;;;14.73;2.70;;;;;;;;;;5075338;28;20071;-67
2024/01/23 13:55:25;;;;;;;26.20;4.15;;;;;;;;;;5077473;28;20113;-68
2024/01/23 13:57:52;;;;;;;15.52;2.90;;;;;;;;;;5089605;28;20058;-68
2024/01/23 14:00:19;;;;;;;23.67;4.35;;;;;;;;;;5083135;28;20543;-67
2024/01/23 14:02:47;;;;;;;25.63;4.25;;;;;;;;;;5084864;28;20472;-67
2024/01/23 14:05:16;;;;;;;24.50;3.97;;;;;;;;;;5085998;28;20137;-69
2024/01/23 14:07:43;;;;;;;22.33;3.47;;;;;;;;;;5064590;28;20105;-68
2024/01/23 14:10:16;;;;;;;22.77;4.40;;;;;;;;;;5064048;28;20047;-70
2024/01/23 14:12:45;;;;;;;26.77;5.30;;;;;;;;;;5069650;28;20087;-67
2024/01/23 14:15:13;;;;;;;24.52;3.88;;;;;;;;;;5085507;28;20051;-68
2024/01/23 14:17:41;;;;;;;35.20;4.60;;;;;;;;;;5078787;28;20044;-67
2024/01/23 14:20:11;;;;;;;29.02;4.10;;;;;;;;;;5099767;28;20047;-69
2024/01/23 14:22:38;;;;;;;26.65;4.40;;;;;;;;;;5073900;28;20141;-68
2024/01/23 14:25:06;;;;;;;28.25;4.40;;;;;;;;;;5076261;28;20082;-64
2024/01/23 14:27:32;;;;;;;25.77;4.10;;;;;;;;;;5085488;28;20075;-64
2024/01/23 14:29:59;;;;;;;27.48;4.10;;;;;;;;;;5079250;28;20577;-65